createdAt,value
2018-09-05T03:01:13.386Z,14.51
2018-09-05T03:02:13.802Z,14.59
2018-09-05T03:03:14.073Z,14.65
2018-09-05T03:04:13.865Z,14.55
2018-09-05T03:05:15.000Z,14.55
2018-09-05T03:06:14.584Z,14.55
2018-09-05T03:07:15.515Z,14.63
2018-09-05T03:08:15.650Z,14.53
2018-09-05T03:09:15.544Z,14.53
2018-09-05T03:10:13.979Z,14.53
2018-09-05T03:11:13.071Z,14.53
2018-09-05T03:12:12.936Z,14.41
2018-09-05T03:13:13.057Z,14.47
2018-09-05T03:14:13.357Z,14.45
2018-09-05T03:15:13.423Z,14.37
2018-09-05T03:16:13.745Z,14.53
2018-09-05T03:18:50.968Z,14.51
2018-09-05T03:19:51.001Z,14.37
2018-09-05T03:20:50.970Z,14.45
2018-09-05T03:21:51.987Z,14.43
2018-09-05T03:22:53.741Z,14.48
2018-09-05T03:23:51.733Z,14.37
2018-09-05T03:24:51.961Z,14.35
2018-09-05T03:26:52.041Z,14.43
2018-09-05T03:27:53.675Z,14.30
2018-09-05T03:28:52.662Z,14.41
2018-09-05T03:29:52.738Z,14.36
2018-09-05T03:30:52.477Z,14.33
2018-09-05T03:32:54.100Z,14.18
2018-09-05T03:33:53.181Z,14.26
2018-09-05T03:34:53.585Z,14.29
2018-09-05T03:35:54.108Z,14.25
2018-09-05T03:36:55.739Z,14.29
2018-09-05T03:37:55.031Z,14.29
2018-09-05T03:39:51.555Z,14.35
2018-09-05T03:40:51.829Z,14.29
2018-09-05T03:41:51.989Z,14.26
2018-09-05T03:42:52.111Z,14.26
2018-09-05T03:43:52.304Z,14.32
2018-09-05T03:44:52.438Z,14.29
2018-09-05T03:45:52.758Z,14.28
2018-09-05T03:46:52.648Z,14.41
2018-09-05T03:47:52.800Z,14.28
2018-09-05T03:48:52.971Z,14.15
2018-09-05T03:49:53.270Z,14.22
2018-09-05T03:50:53.266Z,14.26
2018-09-05T03:51:53.568Z,14.18
2018-09-05T03:52:53.640Z,14.22
2018-09-05T03:53:53.895Z,14.28
2018-09-05T03:54:54.103Z,14.17
2018-09-05T03:55:54.181Z,14.17
2018-09-05T03:56:54.296Z,14.18
2018-09-05T03:57:54.585Z,14.32
2018-09-05T03:58:54.708Z,14.30
2018-09-05T03:59:55.121Z,14.15
2018-09-05T04:00:55.925Z,14.22
2018-09-05T04:01:55.287Z,14.07
2018-09-05T04:02:55.560Z,14.05
2018-09-05T04:03:55.680Z,13.99
2018-09-05T04:04:55.686Z,14.11
2018-09-05T04:05:56.072Z,14.08
2018-09-05T04:06:56.257Z,14.05
2018-09-05T04:07:56.283Z,14.07
2018-09-05T04:08:56.507Z,14.08
2018-09-05T04:09:56.722Z,14.04
2018-09-05T04:10:57.714Z,14.10
2018-09-05T04:11:57.064Z,14.05
2018-09-05T04:12:57.136Z,14.05
2018-09-05T04:13:57.353Z,14.03
2018-09-05T04:14:57.617Z,14.00
2018-09-05T04:15:57.686Z,14.04
2018-09-05T04:16:57.812Z,13.99
2018-09-05T04:17:58.116Z,14.07
2018-09-05T04:18:58.315Z,14.03
2018-09-05T04:19:58.575Z,14.10
2018-09-05T04:20:58.557Z,14.10
2018-09-05T04:21:58.789Z,14.15
2018-09-05T04:22:59.675Z,14.03
2018-09-05T04:23:59.081Z,14.00
2018-09-05T04:25:01.187Z,14.07
2018-09-05T04:25:59.490Z,14.03
2018-09-05T04:26:59.654Z,13.97
2018-09-05T04:27:59.899Z,13.99
2018-09-05T04:29:00.192Z,14.07
2018-09-05T04:30:00.526Z,14.08
2018-09-05T04:31:00.507Z,14.07
2018-09-05T04:32:00.763Z,14.12
2018-09-05T04:33:00.785Z,14.14
2018-09-05T04:34:01.165Z,14.05
2018-09-05T04:35:01.339Z,14.10
2018-09-05T04:36:01.237Z,14.08
2018-09-05T04:37:01.687Z,14.05
2018-09-05T04:38:01.712Z,13.95
2018-09-05T04:39:02.047Z,13.89
2018-09-05T04:40:01.922Z,13.89
2018-09-05T04:41:02.206Z,13.85
2018-09-05T04:42:02.332Z,13.74
2018-09-05T04:43:02.443Z,13.79
2018-09-05T04:44:02.799Z,13.71
2018-09-05T04:45:02.851Z,13.71
2018-09-05T04:46:03.150Z,13.71
2018-09-05T04:47:03.003Z,13.68
2018-09-05T04:48:03.411Z,13.74
2018-09-05T04:49:03.621Z,13.72
2018-09-05T04:50:03.862Z,13.71
2018-09-05T04:51:04.010Z,13.67
2018-09-05T04:52:04.374Z,13.72
2018-09-05T04:53:04.428Z,13.68
2018-09-05T04:54:04.870Z,13.75
2018-09-05T04:55:04.721Z,13.68
2018-09-05T04:56:05.014Z,13.72
2018-09-05T04:57:05.354Z,13.62
2018-09-05T04:58:05.648Z,13.81
2018-09-05T04:59:05.572Z,13.78
2018-09-05T05:00:05.746Z,13.71
2018-09-05T05:01:06.153Z,13.68
2018-09-05T05:02:05.893Z,13.85
2018-09-05T05:03:06.423Z,13.83
2018-09-05T05:04:06.715Z,13.71
2018-09-05T05:05:06.939Z,13.72
2018-09-05T05:06:06.771Z,13.81
2018-09-05T05:07:07.114Z,13.85
2018-09-05T05:08:07.369Z,13.81
2018-09-05T05:09:07.445Z,13.89
2018-09-05T05:10:07.525Z,13.96
2018-09-05T05:11:07.694Z,13.92
2018-09-05T05:12:08.351Z,13.92
2018-09-05T05:13:07.987Z,13.92
2018-09-05T05:14:08.181Z,13.87
2018-09-05T05:15:08.438Z,13.92
2018-09-05T05:16:08.501Z,13.90
2018-09-05T05:17:09.247Z,13.90
2018-09-05T05:18:09.074Z,13.97
2018-09-05T05:19:09.038Z,13.87
2018-09-05T05:20:09.178Z,13.79
2018-09-05T05:21:09.522Z,13.87
2018-09-05T05:22:09.548Z,13.86
2018-09-05T05:23:09.664Z,13.70
2018-09-05T05:25:54.033Z,13.63
2018-09-05T05:26:54.406Z,13.74
2018-09-05T05:28:55.055Z,13.68
2018-09-05T05:29:52.769Z,13.72
2018-09-05T05:30:52.521Z,13.57
2018-09-05T05:31:52.708Z,13.72
2018-09-05T05:32:52.951Z,13.72
2018-09-05T05:33:53.005Z,13.74
2018-09-05T05:34:53.245Z,13.72
2018-09-05T05:35:53.447Z,13.79
2018-09-05T05:36:53.524Z,13.79
2018-09-05T05:37:53.652Z,13.81
2018-09-05T05:38:53.839Z,13.85
2018-09-05T05:39:54.035Z,13.78
2018-09-05T05:40:54.370Z,13.92
2018-09-05T05:41:54.385Z,13.87
2018-09-05T05:42:54.593Z,13.90
2018-09-05T05:43:54.703Z,13.97
2018-09-05T05:44:54.923Z,13.90
2018-09-05T05:45:55.086Z,13.85
2018-09-05T05:46:55.206Z,13.97
2018-09-05T05:47:55.392Z,13.90
2018-09-05T05:48:55.596Z,13.83
2018-09-05T05:49:55.793Z,13.83
2018-09-05T05:50:55.842Z,13.81
2018-09-05T05:51:56.082Z,13.93
2018-09-05T05:52:56.259Z,13.89
2018-09-05T05:53:56.485Z,13.99
2018-09-05T05:54:56.610Z,13.97
2018-09-05T05:55:56.765Z,14.04
2018-09-05T05:56:56.886Z,14.08
2018-09-05T05:57:57.114Z,14.14
2018-09-05T05:58:57.217Z,14.10
2018-09-05T05:59:57.501Z,14.17
2018-09-05T06:00:57.706Z,14.20
2018-09-05T06:01:57.851Z,14.18
2018-09-05T06:02:57.992Z,14.30
2018-09-05T06:03:58.106Z,14.33
2018-09-05T06:04:58.281Z,14.44
2018-09-05T06:05:58.503Z,14.41
2018-09-05T06:06:58.679Z,14.48
2018-09-05T06:07:58.788Z,14.44
2018-09-05T06:08:59.021Z,14.55
2018-09-05T06:09:59.117Z,14.55
2018-09-05T06:10:59.298Z,14.70
2018-09-05T06:11:59.529Z,14.78
2018-09-05T06:12:59.723Z,14.86
2018-09-05T06:13:59.816Z,14.91
2018-09-05T06:15:00.031Z,14.94
2018-09-05T06:16:00.288Z,15.04
2018-09-05T06:17:00.368Z,15.11
2018-09-05T06:18:00.669Z,15.07
2018-09-05T06:19:00.739Z,15.19
2018-09-05T06:20:00.914Z,15.15
2018-09-05T06:21:01.088Z,15.29
2018-09-05T06:22:01.796Z,15.28
2018-09-05T06:23:01.413Z,15.36
2018-09-05T06:24:01.683Z,15.39
2018-09-05T06:25:01.740Z,15.52
2018-09-05T06:26:01.936Z,15.57
2018-09-05T06:27:02.045Z,15.51
2018-09-05T06:28:02.272Z,15.43
2018-09-05T06:29:02.432Z,15.52
2018-09-05T06:30:02.553Z,15.49
2018-09-05T06:31:02.849Z,15.58
2018-09-05T06:32:02.953Z,15.62
2018-09-05T06:33:03.207Z,15.67
2018-09-05T06:34:03.395Z,15.79
2018-09-05T06:35:03.531Z,15.88
2018-09-05T06:36:03.655Z,15.90
2018-09-05T06:37:03.855Z,15.94
2018-09-05T06:38:04.033Z,16.02
2018-09-05T06:39:04.218Z,16.02
2018-09-05T06:40:04.388Z,16.01
2018-09-05T06:41:04.572Z,16.12
2018-09-05T06:42:04.742Z,16.13
2018-09-05T06:43:04.922Z,16.24
2018-09-05T06:44:05.116Z,16.35
2018-09-05T06:45:05.338Z,16.42
2018-09-05T06:46:05.468Z,16.50
2018-09-05T06:47:05.640Z,16.54
2018-09-05T06:48:05.774Z,16.57
2018-09-05T06:49:05.891Z,16.69
2018-09-05T06:50:06.105Z,16.75
2018-09-05T06:51:06.350Z,16.81
2018-09-05T06:52:06.459Z,16.84
2018-09-05T06:53:06.569Z,16.97
2018-09-05T06:54:06.795Z,16.94
2018-09-05T06:55:07.023Z,17.09
2018-09-05T06:56:07.069Z,17.20
2018-09-05T06:57:07.323Z,17.14
2018-09-05T06:58:07.548Z,17.23
2018-09-05T06:59:07.605Z,17.24
2018-09-05T07:00:07.817Z,17.31
2018-09-05T07:01:07.998Z,17.44
2018-09-05T07:02:08.170Z,17.46
2018-09-05T07:03:08.348Z,17.65
2018-09-05T07:04:08.407Z,17.68
2018-09-05T07:05:09.273Z,17.72
2018-09-05T07:06:08.812Z,17.83
2018-09-05T07:07:09.754Z,17.82
2018-09-05T07:08:09.202Z,17.86
2018-09-05T07:09:09.451Z,17.89
2018-09-05T07:10:09.680Z,17.98
2018-09-05T07:11:09.767Z,17.94
2018-09-05T07:12:10.795Z,18.05
2018-09-05T07:13:10.279Z,18.08
2018-09-05T07:14:10.381Z,18.13
2018-09-05T07:15:10.501Z,18.11
2018-09-05T07:16:10.631Z,18.22
2018-09-05T07:17:10.831Z,18.26
2018-09-05T07:18:10.997Z,18.25
2018-09-05T07:19:11.173Z,18.33
2018-09-05T07:20:11.344Z,18.47
2018-09-05T07:21:11.556Z,18.58
2018-09-05T07:22:11.672Z,18.80
2018-09-05T07:23:11.808Z,19.00
2018-09-05T07:24:12.025Z,19.30
2018-09-05T07:25:12.266Z,19.51
2018-09-05T07:26:12.390Z,19.76
2018-09-05T07:27:12.553Z,19.96
2018-09-05T07:28:12.748Z,20.10
2018-09-05T07:29:12.859Z,20.21
2018-09-05T07:30:13.011Z,20.22
2018-09-05T07:31:13.201Z,20.32
2018-09-05T07:32:13.389Z,20.55
2018-09-05T07:33:13.612Z,20.77
2018-09-05T07:34:13.769Z,20.90
2018-09-05T07:35:13.849Z,21.51
2018-09-05T07:36:14.052Z,21.55
2018-09-05T07:37:14.334Z,21.52
2018-09-05T07:38:15.166Z,21.35
2018-09-05T07:39:14.582Z,21.64
2018-09-05T07:40:14.769Z,22.02
2018-09-05T07:41:14.923Z,22.26
2018-09-05T07:42:15.057Z,22.26
2018-09-05T07:43:15.343Z,22.10
2018-09-05T07:44:15.465Z,22.14
2018-09-05T07:45:15.572Z,22.14
2018-09-05T07:46:15.800Z,22.47
2018-09-05T07:47:15.972Z,22.62
2018-09-05T07:48:16.110Z,22.47
2018-09-05T07:49:17.647Z,22.70
2018-09-05T07:50:16.429Z,22.91
2018-09-05T07:51:16.617Z,23.08
2018-09-05T07:52:16.780Z,22.93
2018-09-05T07:53:16.967Z,23.09
2018-09-05T07:54:17.081Z,23.39
2018-09-05T07:55:17.292Z,23.39
2018-09-05T07:56:17.545Z,23.43
2018-09-05T07:57:17.730Z,23.86
2018-09-05T07:58:17.876Z,23.96
2018-09-05T07:59:18.285Z,23.95
2018-09-05T08:00:18.154Z,23.84
2018-09-05T08:01:18.356Z,23.95
2018-09-05T08:02:18.521Z,23.87
2018-09-05T08:03:18.743Z,24.32
2018-09-05T08:04:18.892Z,24.66
2018-09-05T08:05:19.038Z,25.01
2018-09-05T08:06:19.159Z,25.14
2018-09-05T08:07:19.372Z,25.17
2018-09-05T08:08:19.701Z,25.40
2018-09-05T08:09:19.739Z,25.59
2018-09-05T08:10:19.973Z,25.85
2018-09-05T08:11:20.091Z,26.05
2018-09-05T08:12:20.214Z,26.21
2018-09-05T08:13:20.428Z,26.45
2018-09-05T08:14:20.589Z,26.77
2018-09-05T08:15:20.942Z,26.51
2018-09-05T08:16:20.988Z,26.38
2018-09-05T08:17:21.149Z,26.26
2018-09-05T08:18:21.330Z,26.09
2018-09-05T08:19:21.594Z,26.56
2018-09-05T08:20:22.165Z,26.59
2018-09-05T08:21:21.848Z,26.88
2018-09-05T08:22:22.068Z,27.18
2018-09-05T08:23:22.222Z,27.20
2018-09-05T08:24:22.375Z,27.07
2018-09-05T08:25:22.625Z,27.12
2018-09-05T08:26:22.776Z,27.27
2018-09-05T08:27:22.953Z,27.40
2018-09-05T08:28:23.114Z,27.59
2018-09-05T08:29:23.387Z,27.83
2018-09-05T08:30:23.525Z,27.95
2018-09-05T08:31:23.562Z,28.01
2018-09-05T08:32:23.832Z,28.35
2018-09-05T08:33:23.925Z,28.62
2018-09-05T08:34:24.235Z,28.84
2018-09-05T08:35:24.534Z,28.96
2018-09-05T08:36:24.732Z,28.59
2018-09-05T08:37:24.884Z,28.59
2018-09-05T08:38:24.807Z,28.57
2018-09-05T08:39:24.961Z,28.81
2018-09-05T08:40:25.227Z,28.93
2018-09-05T08:41:25.351Z,28.89
2018-09-05T08:42:25.610Z,29.29
2018-09-05T08:43:25.683Z,29.39
2018-09-05T08:44:25.972Z,29.61
2018-09-05T08:45:26.454Z,29.63
2018-09-05T08:46:26.305Z,29.22
2018-09-05T08:47:26.460Z,29.49
2018-09-05T08:48:26.628Z,29.66
2018-09-05T08:49:26.814Z,29.82
2018-09-05T08:50:26.942Z,30.15
2018-09-05T08:51:27.161Z,30.44
2018-09-05T08:52:27.631Z,30.63
2018-09-05T08:53:27.581Z,30.92
2018-09-05T08:54:27.835Z,30.85
2018-09-05T08:55:27.948Z,30.83
2018-09-05T08:56:28.808Z,30.59
2018-09-05T08:57:45.620Z,30.92
2018-09-05T08:58:31.055Z,31.43
2018-09-05T08:59:41.536Z,31.37
2018-09-05T09:00:31.501Z,31.73
2018-09-05T09:01:34.605Z,32.01
2018-09-05T09:02:33.624Z,32.21
2018-09-05T09:03:31.953Z,32.04
2018-09-05T09:04:29.477Z,31.90
2018-09-05T09:05:29.558Z,31.84
2018-09-05T09:06:29.728Z,31.89
2018-09-05T09:07:30.272Z,32.14
2018-09-05T09:08:30.028Z,32.46
2018-09-05T09:09:30.495Z,32.59
2018-09-05T09:10:30.384Z,32.89
2018-09-05T09:11:30.602Z,32.96
2018-09-05T09:12:30.767Z,33.24
2018-09-05T09:13:30.918Z,33.05
2018-09-05T09:14:31.047Z,32.85
2018-09-05T09:15:31.236Z,32.82
2018-09-05T09:16:31.480Z,32.51
2018-09-05T09:17:31.677Z,32.30
2018-09-05T09:18:31.886Z,32.65
2018-09-05T09:19:32.019Z,32.60
2018-09-05T09:20:32.137Z,32.74
2018-09-05T09:21:32.747Z,32.71
2018-09-05T09:22:33.891Z,32.60
2018-09-05T09:23:37.368Z,32.78
2018-09-05T09:24:32.955Z,32.89
2018-09-05T09:25:33.112Z,32.96
2018-09-05T09:26:33.784Z,33.19
2018-09-05T09:27:33.537Z,33.27
2018-09-05T09:28:33.946Z,33.01
2018-09-05T09:29:33.830Z,32.85
2018-09-05T09:30:34.049Z,32.83
2018-09-05T09:31:34.197Z,32.46
2018-09-05T09:32:34.579Z,31.90
2018-09-05T09:33:34.901Z,31.87
2018-09-05T09:34:34.884Z,30.91
2018-09-05T09:35:34.985Z,30.55
2018-09-05T09:36:35.178Z,30.37
2018-09-05T09:37:35.372Z,29.90
2018-09-05T09:38:35.576Z,29.42
2018-09-05T09:39:35.778Z,29.23
2018-09-05T09:40:35.981Z,29.10
2018-09-05T09:41:36.192Z,29.27
2018-09-05T09:42:36.348Z,29.66
2018-09-05T09:43:36.514Z,29.90
2018-09-05T09:44:36.689Z,30.00
2018-09-05T09:45:36.895Z,30.08
2018-09-05T09:46:37.101Z,30.23
2018-09-05T09:47:37.241Z,30.30
2018-09-05T09:48:37.376Z,30.27
2018-09-05T09:49:37.660Z,30.21
2018-09-05T09:50:37.848Z,30.43
2018-09-05T09:51:37.964Z,30.40
2018-09-05T09:52:38.135Z,30.28
2018-09-05T09:53:38.321Z,29.87
2018-09-05T09:54:39.417Z,29.93
2018-09-05T09:56:00.471Z,29.65
2018-09-05T09:56:39.316Z,29.65
2018-09-05T09:57:39.237Z,29.91
2018-09-05T09:58:39.338Z,29.82
2018-09-05T09:59:39.470Z,30.08
2018-09-05T10:01:39.978Z,30.53
2018-09-05T10:02:40.121Z,30.87
2018-09-05T10:03:40.487Z,31.46
2018-09-05T10:04:41.259Z,31.34
2018-09-05T10:05:41.287Z,31.62
2018-09-05T10:06:40.784Z,32.09
2018-09-05T10:07:41.401Z,32.75
2018-09-05T10:08:41.127Z,32.77
2018-09-05T10:09:41.969Z,32.51
2018-09-05T10:10:41.587Z,32.74
2018-09-05T10:11:41.715Z,33.14
2018-09-05T10:12:41.893Z,33.19
2018-09-05T10:13:42.021Z,33.01
2018-09-05T10:14:42.249Z,33.05
2018-09-05T10:15:42.369Z,32.93
2018-09-05T10:16:42.669Z,32.73
2018-09-05T10:17:42.738Z,33.24
2018-09-05T10:18:42.979Z,33.69
2018-09-05T10:19:43.162Z,33.55
2018-09-05T10:20:43.224Z,33.79
2018-09-05T10:21:44.327Z,34.20
2018-09-05T10:22:43.576Z,34.32
2018-09-05T10:23:43.755Z,34.11
2018-09-05T10:24:43.860Z,34.01
2018-09-05T10:25:44.062Z,34.20
2018-09-05T10:26:44.352Z,34.40
2018-09-05T10:27:44.440Z,34.62
2018-09-05T10:28:45.383Z,34.73
2018-09-05T10:29:44.699Z,35.23
2018-09-05T10:30:44.915Z,35.29
2018-09-05T10:31:45.234Z,35.60
2018-09-05T10:32:45.419Z,35.80
2018-09-05T10:33:45.565Z,36.09
2018-09-05T10:34:45.691Z,36.47
2018-09-05T10:35:45.886Z,36.54
2018-09-05T10:36:46.077Z,35.98
2018-09-05T10:37:46.253Z,35.95
2018-09-05T10:38:46.496Z,35.73
2018-09-05T10:39:46.569Z,35.66
2018-09-05T10:40:46.787Z,35.29
2018-09-05T10:41:46.912Z,35.79
2018-09-05T10:42:47.209Z,35.86
2018-09-05T10:43:47.290Z,36.02
2018-09-05T10:44:47.503Z,36.25
2018-09-05T10:45:47.968Z,36.37
2018-09-05T10:46:47.953Z,36.80
2018-09-05T10:47:48.032Z,37.30
2018-09-05T10:48:48.303Z,37.20
2018-09-05T10:49:48.357Z,37.03
2018-09-05T10:50:48.690Z,37.06
2018-09-05T10:51:49.164Z,37.03
2018-09-05T10:52:49.029Z,36.99
2018-09-05T10:53:49.334Z,37.28
2018-09-05T10:54:49.346Z,37.45
2018-09-05T10:55:49.463Z,36.77
2018-09-05T10:56:49.642Z,36.70
2018-09-05T10:57:49.865Z,36.23
2018-09-05T10:58:50.041Z,36.42
2018-09-05T10:59:50.244Z,36.62
2018-09-05T11:00:50.403Z,36.89
2018-09-05T11:01:50.633Z,37.02
2018-09-05T11:02:50.854Z,36.65
2018-09-05T11:03:50.914Z,36.57
2018-09-05T11:04:52.502Z,36.55
2018-09-05T11:05:51.410Z,36.52
2018-09-05T11:06:51.776Z,36.47
2018-09-05T11:07:51.821Z,36.12
2018-09-05T11:08:51.928Z,35.86
2018-09-05T11:09:52.119Z,35.29
2018-09-05T11:10:52.197Z,35.23
2018-09-05T11:11:52.357Z,35.17
2018-09-05T11:12:52.818Z,35.49
2018-09-05T11:13:52.972Z,36.00
2018-09-05T11:14:53.090Z,36.07
2018-09-05T11:15:53.205Z,36.02
2018-09-05T11:16:53.615Z,36.55
2018-09-05T11:17:53.490Z,37.14
2018-09-05T11:18:53.710Z,37.14
2018-09-05T11:19:53.781Z,36.30
2018-09-05T11:20:54.065Z,36.00
2018-09-05T11:21:54.237Z,35.98
2018-09-05T11:22:54.421Z,36.51
2018-09-05T11:23:54.566Z,36.86
2018-09-05T11:24:54.724Z,37.37
2018-09-05T11:25:54.873Z,38.02
2018-09-05T11:26:55.072Z,38.48
2018-09-05T11:27:55.256Z,38.69
2018-09-05T11:28:55.482Z,38.55
2018-09-05T11:29:55.756Z,38.38
2018-09-05T11:30:55.852Z,38.11
2018-09-05T11:31:56.097Z,37.93
2018-09-05T11:32:56.878Z,37.70
2018-09-05T11:33:56.448Z,37.63
2018-09-05T11:34:56.599Z,37.82
2018-09-05T11:35:56.769Z,38.43
2018-09-05T11:36:57.055Z,38.38
2018-09-05T11:37:57.131Z,38.23
2018-09-05T11:38:57.428Z,38.23
2018-09-05T11:39:57.598Z,38.19
2018-09-05T11:40:57.719Z,37.72
2018-09-05T11:41:57.993Z,38.28
2018-09-05T11:42:58.051Z,37.28
2018-09-05T11:43:58.263Z,36.14
2018-09-05T11:44:58.527Z,35.58
2018-09-05T11:45:58.997Z,35.17
2018-09-05T11:46:59.034Z,34.42
2018-09-05T11:47:59.343Z,33.81
2018-09-05T11:48:59.421Z,33.95
2018-09-05T11:50:00.537Z,34.40
2018-09-05T11:51:00.732Z,35.22
2018-09-05T11:52:00.289Z,35.53
2018-09-05T11:53:00.427Z,35.53
2018-09-05T11:54:00.415Z,36.17
2018-09-05T11:55:00.794Z,35.71
2018-09-05T11:56:01.007Z,35.37
2018-09-05T11:57:00.861Z,34.93
2018-09-05T11:58:01.070Z,33.61
2018-09-05T11:59:01.266Z,33.07
2018-09-05T12:00:01.635Z,32.52
2018-09-05T12:01:01.595Z,32.00
2018-09-05T12:02:02.106Z,31.93
2018-09-05T12:03:02.372Z,32.97
2018-09-05T12:04:03.413Z,33.73
2018-09-05T12:05:02.811Z,34.60
2018-09-05T12:06:05.078Z,35.31
2018-09-05T12:07:02.943Z,35.58
2018-09-05T12:08:03.177Z,35.88
2018-09-05T12:09:03.268Z,36.35
2018-09-05T12:10:04.708Z,36.24
2018-09-05T12:11:03.835Z,36.40
2018-09-05T12:12:04.312Z,36.67
2018-09-05T12:13:04.292Z,36.54
2018-09-05T12:14:05.435Z,36.62
2018-09-05T12:26:26.838Z,38.86
2018-09-05T12:27:00.240Z,38.71
2018-09-05T12:29:01.429Z,38.50
2018-09-05T12:39:09.317Z,38.30
2018-09-05T12:45:20.725Z,38.62
2018-09-05T12:55:42.672Z,36.42
2018-09-05T12:56:38.530Z,35.93
2018-09-05T12:57:38.957Z,35.45
2018-09-05T12:58:35.461Z,34.60
2018-09-05T12:59:35.627Z,33.92
2018-09-05T13:00:35.733Z,33.46
2018-09-05T13:01:35.941Z,33.04
2018-09-05T13:02:36.280Z,32.90
2018-09-05T13:03:36.445Z,32.75
2018-09-05T13:04:37.326Z,32.67
2018-09-05T13:05:38.182Z,32.68
2018-09-05T13:11:00.538Z,34.96
2018-09-05T13:14:06.237Z,35.27
2018-09-05T13:15:09.452Z,34.48
2018-09-05T13:29:43.038Z,31.44
2018-09-05T13:31:26.171Z,32.53
2018-09-05T13:33:20.860Z,32.19
2018-09-05T13:34:20.265Z,31.77
2018-09-05T13:35:28.499Z,31.44
2018-09-05T13:37:25.201Z,31.55
2018-09-05T13:38:25.770Z,32.77
2018-09-05T13:39:47.689Z,33.94
2018-09-05T13:40:21.213Z,34.51
2018-09-05T13:41:19.372Z,35.33
2018-09-05T13:42:19.520Z,36.20
2018-09-05T13:43:19.608Z,36.67
2018-09-05T13:46:44.862Z,36.88
2018-09-05T13:49:46.681Z,37.06
2018-09-05T13:53:00.808Z,38.19
2018-09-05T13:53:50.453Z,38.26
2018-09-05T13:54:48.210Z,38.50
2018-09-05T13:55:49.298Z,38.49
2018-09-05T13:56:47.276Z,38.09
2018-09-05T14:02:18.813Z,38.05
2018-09-05T14:03:16.777Z,38.58
2018-09-05T14:04:29.928Z,38.17
2018-09-05T14:05:26.469Z,38.30
2018-09-05T14:06:15.370Z,38.48
2018-09-05T14:07:15.149Z,38.64
2018-09-05T14:08:14.942Z,38.82
2018-09-05T14:09:14.903Z,38.57
2018-09-05T14:10:15.025Z,38.54
2018-09-05T14:11:15.632Z,38.68
2018-09-05T14:12:15.483Z,38.49
2018-09-05T14:13:18.306Z,38.58
2018-09-05T14:14:15.781Z,38.24
2018-09-05T14:15:15.903Z,38.45
2018-09-05T14:16:16.171Z,38.65
2018-09-05T14:17:16.378Z,38.62
2018-09-05T14:18:16.602Z,38.80
2018-09-05T14:19:17.290Z,38.61
2018-09-05T14:20:17.424Z,38.65
2018-09-05T14:21:18.246Z,38.79
2018-09-05T14:22:17.281Z,39.00
2018-09-05T14:23:17.488Z,38.77
2018-09-05T14:24:17.667Z,38.50
2018-09-05T14:25:18.085Z,38.57
2018-09-05T14:26:18.095Z,38.65
2018-09-05T14:27:18.421Z,38.77
2018-09-05T14:28:18.851Z,38.82
2018-09-05T14:29:18.561Z,39.11
2018-09-05T14:30:18.835Z,39.18
2018-09-05T14:31:18.953Z,39.19
2018-09-05T14:32:19.127Z,39.18
2018-09-05T14:33:19.259Z,38.99
2018-09-05T14:34:19.438Z,38.79
2018-09-05T14:35:19.579Z,38.79
2018-09-05T14:36:19.915Z,38.50
2018-09-05T14:37:20.061Z,38.67
2018-09-05T14:38:20.163Z,38.95
2018-09-05T14:39:21.230Z,38.57
2018-09-05T14:40:20.652Z,38.67
2018-09-05T14:41:20.761Z,38.42
2018-09-05T14:42:20.973Z,38.43
2018-09-05T14:43:21.203Z,38.36
2018-09-05T14:44:21.403Z,38.42
2018-09-05T14:45:21.525Z,38.52
2018-09-05T14:46:21.750Z,38.76
2018-09-05T14:47:21.836Z,38.82
2018-09-05T14:48:22.132Z,38.64
2018-09-05T14:49:22.389Z,38.62
2018-09-05T14:50:22.651Z,38.62
2018-09-05T14:51:22.695Z,38.49
2018-09-05T14:52:22.830Z,38.19
2018-09-05T14:53:23.065Z,37.72
2018-09-05T14:54:23.279Z,38.04
2018-09-05T14:55:23.541Z,37.48
2018-09-05T14:56:23.666Z,37.49
2018-09-05T14:57:23.810Z,37.51
2018-09-05T14:58:24.985Z,37.64
2018-09-05T14:59:24.232Z,37.83
2018-09-05T15:00:24.390Z,38.01
2018-09-05T15:01:24.594Z,38.05
2018-09-05T15:02:24.953Z,38.06
2018-09-05T15:03:25.071Z,37.78
2018-09-05T15:04:25.113Z,37.75
2018-09-05T15:05:25.296Z,37.82
2018-09-05T15:06:25.574Z,37.68
2018-09-05T15:07:25.801Z,37.51
2018-09-05T15:08:25.986Z,37.65
2018-09-05T15:09:26.083Z,37.58
2018-09-05T15:10:26.607Z,37.39
2018-09-05T15:11:26.475Z,37.26
2018-09-05T15:12:27.137Z,37.48
2018-09-05T15:13:26.985Z,37.06
2018-09-05T15:14:27.109Z,36.98
2018-09-05T15:15:28.058Z,37.17
2018-09-05T15:16:28.371Z,36.92
2018-09-05T15:17:28.103Z,36.77
2018-09-05T15:18:27.934Z,36.95
2018-09-05T15:19:28.275Z,36.98
2018-09-05T15:20:28.324Z,36.99
2018-09-05T15:21:28.853Z,37.07
2018-09-05T15:22:28.841Z,37.14
2018-09-05T15:23:28.830Z,37.11
2018-09-05T15:24:29.342Z,37.25
2018-09-05T15:25:29.529Z,37.40
2018-09-05T15:26:29.929Z,37.49
2018-09-05T15:27:29.797Z,37.64
2018-09-05T15:28:30.264Z,37.65
2018-09-05T15:29:30.077Z,37.68
2018-09-05T15:30:30.608Z,37.72
2018-09-05T15:31:30.787Z,37.56
2018-09-05T15:32:30.854Z,37.37
2018-09-05T15:33:30.870Z,36.93
2018-09-05T15:34:31.291Z,35.95
2018-09-05T15:35:31.390Z,35.17
2018-09-05T15:36:31.743Z,34.48
2018-09-05T15:37:31.924Z,33.95
2018-09-05T15:38:31.894Z,33.52
2018-09-05T15:39:32.197Z,33.14
2018-09-05T15:40:32.489Z,32.63
2018-09-05T15:41:33.253Z,32.18
2018-09-05T15:42:33.425Z,31.80
2018-09-05T15:43:32.974Z,31.49
2018-09-05T15:44:33.055Z,31.31
2018-09-05T15:45:33.321Z,31.33
2018-09-05T15:46:33.555Z,31.34
2018-09-05T15:47:34.165Z,31.84
2018-09-05T15:48:33.899Z,32.40
2018-09-05T15:49:34.151Z,32.74
2018-09-05T15:50:34.754Z,32.78
2018-09-05T15:51:34.832Z,32.71
2018-09-05T15:52:35.323Z,32.87
2018-09-05T15:53:34.915Z,33.20
2018-09-05T15:54:36.213Z,33.32
2018-09-05T15:55:35.109Z,33.47
2018-09-05T15:56:35.862Z,33.58
2018-09-05T15:57:36.058Z,33.27
2018-09-05T15:58:35.945Z,33.19
2018-09-05T15:59:38.153Z,33.02
2018-09-05T16:00:36.129Z,32.74
2018-09-05T16:01:36.267Z,32.49
2018-09-05T16:02:36.917Z,32.31
2018-09-05T16:03:36.993Z,32.14
2018-09-05T16:04:37.497Z,31.92
2018-09-05T16:05:37.056Z,31.70
2018-09-05T16:06:37.455Z,31.56
2018-09-05T16:07:37.693Z,31.49
2018-09-05T16:08:37.758Z,31.51
2018-09-05T16:09:37.768Z,31.34
2018-09-05T16:10:37.880Z,31.18
2018-09-05T16:11:38.130Z,31.06
2018-09-05T16:12:38.349Z,30.73
2018-09-05T16:13:38.404Z,30.51
2018-09-05T16:15:39.392Z,30.08
2018-09-05T16:16:39.273Z,30.12
2018-09-05T16:17:40.915Z,29.98
2018-09-05T16:18:40.399Z,29.94
2018-09-05T16:19:41.616Z,29.97
2018-09-05T16:20:39.992Z,29.97
2018-09-05T16:21:40.082Z,29.95
2018-09-05T16:22:40.747Z,30.03
2018-09-05T16:23:40.170Z,30.06
2018-09-05T16:24:43.447Z,30.02
2018-09-05T16:25:40.660Z,30.00
2018-09-05T16:26:40.948Z,29.82
2018-09-05T16:27:41.208Z,29.78
2018-09-05T16:28:41.241Z,29.63
2018-09-05T16:29:41.521Z,29.65
2018-09-05T16:30:41.426Z,29.63
2018-09-05T16:31:41.652Z,29.59
2018-09-05T16:32:41.900Z,29.60
2018-09-05T16:33:42.023Z,29.54
2018-09-05T16:34:42.371Z,29.41
2018-09-05T16:35:42.456Z,29.36
2018-09-05T16:36:45.891Z,29.38
2018-09-05T16:37:42.753Z,29.38
2018-09-05T16:38:43.028Z,29.35
2018-09-05T16:39:43.051Z,29.22
2018-09-05T16:40:43.234Z,29.26
2018-09-05T16:41:43.507Z,29.17
2018-09-05T16:42:43.625Z,29.17
2018-09-05T16:43:43.826Z,29.14
2018-09-05T16:44:43.977Z,29.01
2018-09-05T16:45:44.250Z,28.85
2018-09-05T16:46:44.413Z,28.78
2018-09-05T16:47:44.569Z,28.70
2018-09-05T16:48:44.707Z,28.63
2018-09-05T16:49:44.931Z,28.54
2018-09-05T16:50:45.134Z,28.48
2018-09-05T16:51:45.605Z,28.57
2018-09-05T16:52:45.595Z,28.33
2018-09-05T16:53:46.067Z,28.35
2018-09-05T16:54:46.892Z,28.32
2018-09-05T16:55:46.150Z,28.27
2018-09-05T16:56:46.309Z,28.32
2018-09-05T16:57:47.444Z,28.38
2018-09-05T16:58:46.627Z,28.27
2018-09-05T16:59:46.798Z,28.17
2018-09-05T17:00:47.054Z,28.20
2018-09-05T17:01:47.187Z,28.10
2018-09-05T17:02:48.339Z,28.05
2018-09-05T17:03:47.663Z,28.02
2018-09-05T17:04:47.734Z,28.00
2018-09-05T17:05:47.913Z,27.93
2018-09-05T17:06:48.216Z,27.85
2018-09-05T17:07:48.348Z,27.78
2018-09-05T17:08:48.547Z,27.70
2018-09-05T17:09:48.887Z,27.60
2018-09-05T17:10:48.884Z,27.52
2018-09-05T17:11:49.060Z,27.51
2018-09-05T17:12:49.574Z,27.63
2018-09-05T17:13:49.583Z,27.51